createdAt,value
2023-01-20T00:01:59.137Z,1.90
2023-01-20T00:04:29.545Z,1.70
2023-01-20T00:06:58.648Z,2.00
2023-01-20T00:09:27.696Z,1.07
2023-01-20T00:11:56.707Z,1.63
2023-01-20T00:14:26.270Z,1.00
2023-01-20T00:16:57.311Z,2.00
2023-01-20T00:19:28.344Z,1.17
2023-01-20T00:21:57.381Z,1.20
2023-01-20T00:24:26.645Z,2.03
2023-01-20T00:26:55.746Z,2.70
2023-01-20T00:29:24.792Z,2.03
2023-01-20T00:31:53.849Z,2.00
2023-01-20T00:34:22.927Z,1.37
2023-01-20T00:36:53.374Z,2.10
2023-01-20T00:39:22.592Z,1.40
2023-01-20T00:41:51.967Z,1.60
2023-01-20T00:44:21.271Z,1.67
2023-01-20T00:46:50.388Z,1.60
2023-01-20T00:49:19.654Z,1.83
2023-01-20T00:51:48.757Z,1.77
2023-01-20T00:54:19.218Z,1.83
2023-01-20T00:56:48.328Z,2.00
2023-01-20T00:59:17.343Z,2.10
2023-01-20T01:01:46.578Z,2.03
2023-01-20T01:04:15.792Z,1.63
2023-01-20T01:06:44.828Z,1.80
2023-01-20T01:09:13.865Z,1.60
2023-01-20T01:11:44.414Z,2.07
2023-01-20T01:14:13.437Z,2.00
2023-01-20T01:16:42.572Z,1.97
2023-01-20T01:19:11.559Z,2.30
2023-01-20T01:21:40.581Z,1.73
2023-01-20T01:24:09.736Z,2.47
2023-01-20T01:26:38.836Z,1.80
2023-01-20T01:29:09.233Z,1.87
2023-01-20T01:31:38.926Z,1.90
2023-01-20T01:34:07.995Z,2.20
2023-01-20T01:36:37.017Z,2.37
2023-01-20T01:39:06.158Z,2.73
2023-01-20T01:41:35.227Z,3.37
2023-01-20T01:44:09.845Z,2.43
2023-01-20T01:46:39.501Z,2.53
2023-01-20T01:49:12.641Z,2.30
2023-01-20T01:51:47.378Z,2.33
2023-01-20T01:54:19.895Z,2.03
2023-01-20T01:56:50.902Z,2.50
2023-01-20T01:59:22.478Z,3.03
2023-01-20T02:01:54.428Z,3.10
2023-01-20T02:04:26.178Z,3.43
2023-01-20T02:06:58.534Z,3.63
2023-01-20T02:09:29.808Z,4.33
2023-01-20T02:12:03.453Z,3.70
2023-01-20T02:14:38.464Z,4.53
2023-01-20T02:17:15.759Z,5.00
2023-01-20T02:20:20.554Z,3.60
2023-01-20T02:22:56.049Z,4.73
2023-01-20T02:25:53.508Z,5.33
2023-01-20T02:28:51.423Z,4.83
2023-01-20T02:32:05.356Z,4.10
2023-01-20T02:34:40.955Z,5.07
2023-01-20T02:37:14.721Z,4.90
2023-01-20T02:39:51.012Z,5.60
2023-01-20T02:42:25.444Z,1.87
2023-01-20T02:44:58.767Z,4.87
2023-01-20T02:47:35.214Z,5.37
2023-01-20T02:50:10.924Z,6.63
2023-01-20T02:52:43.240Z,6.57
2023-01-20T02:55:16.838Z,5.27
2023-01-20T02:57:52.578Z,7.63
2023-01-20T03:00:28.594Z,6.90
2023-01-20T03:03:03.550Z,5.60
2023-01-20T03:05:37.815Z,7.70
2023-01-20T03:08:09.788Z,8.97
2023-01-20T03:10:41.893Z,6.57
2023-01-20T03:13:17.666Z,8.20
2023-01-20T03:15:56.570Z,8.30
2023-01-20T03:18:29.358Z,8.37
2023-01-20T03:21:00.555Z,8.27
2023-01-20T03:23:32.699Z,8.63
2023-01-20T03:26:05.686Z,9.53
2023-01-20T03:28:34.853Z,8.90
2023-01-20T03:31:11.896Z,10.47
2023-01-20T03:33:43.275Z,9.37
2023-01-20T03:36:13.657Z,9.60
2023-01-20T03:38:43.216Z,8.17
2023-01-20T03:41:21.894Z,11.30
2023-01-20T03:44:00.293Z,6.03
2023-01-20T03:46:33.916Z,9.83
2023-01-20T03:49:14.641Z,10.33
2023-01-20T03:51:55.944Z,8.80
2023-01-20T03:54:28.544Z,9.10
2023-01-20T03:57:04.164Z,10.27
2023-01-20T03:59:38.344Z,10.13
2023-01-20T04:02:10.041Z,12.70
2023-01-20T04:04:42.819Z,11.87
2023-01-20T04:07:15.043Z,10.37
2023-01-20T04:09:48.574Z,11.30
2023-01-20T04:12:17.661Z,13.37
2023-01-20T04:14:46.815Z,11.90
2023-01-20T04:17:16.331Z,11.23
2023-01-20T04:19:46.689Z,12.57
2023-01-20T04:22:23.643Z,12.13
2023-01-20T04:24:56.149Z,13.00
2023-01-20T04:27:25.263Z,8.70
2023-01-20T04:29:54.309Z,13.33
2023-01-20T04:32:23.353Z,11.67
2023-01-20T04:34:53.796Z,13.30
2023-01-20T04:37:22.863Z,10.93
2023-01-20T04:39:51.984Z,12.60
2023-01-20T04:42:21.034Z,11.10
2023-01-20T04:44:50.135Z,13.50
2023-01-20T04:47:19.400Z,14.07
2023-01-20T04:49:48.434Z,14.37
2023-01-20T04:52:18.877Z,10.07
2023-01-20T04:54:47.934Z,12.63
2023-01-20T04:57:17.016Z,12.67
2023-01-20T04:59:46.062Z,12.17
2023-01-20T05:02:15.131Z,10.03
2023-01-20T05:04:45.167Z,14.43
2023-01-20T05:07:14.275Z,13.37
2023-01-20T05:09:44.684Z,11.93
2023-01-20T05:12:13.750Z,13.30
2023-01-20T05:14:42.837Z,12.47
2023-01-20T05:17:11.886Z,11.87
2023-01-20T05:19:40.961Z,13.40
2023-01-20T05:22:10.090Z,13.23
2023-01-20T05:24:40.286Z,12.70
2023-01-20T05:27:10.881Z,11.03
2023-01-20T05:29:39.898Z,9.73
2023-01-20T05:32:08.952Z,9.73
2023-01-20T05:34:37.984Z,11.57
2023-01-20T05:37:07.034Z,13.93
2023-01-20T05:39:36.090Z,13.33
2023-01-20T05:42:05.422Z,11.73
2023-01-20T05:44:35.937Z,12.43
2023-01-20T05:47:05.102Z,11.87
2023-01-20T05:49:34.568Z,11.63
2023-01-20T05:52:03.618Z,11.53
2023-01-20T05:54:32.624Z,11.30
2023-01-20T05:57:01.653Z,8.53
2023-01-20T05:59:30.677Z,12.13
2023-01-20T06:02:01.099Z,12.57
2023-01-20T06:04:30.227Z,13.10
2023-01-20T06:06:59.689Z,10.70
2023-01-20T06:09:28.711Z,12.30
2023-01-20T06:11:57.734Z,12.67
2023-01-20T06:14:26.770Z,9.73
2023-01-20T06:16:55.812Z,10.57
2023-01-20T06:19:26.299Z,10.10
2023-01-20T06:21:55.307Z,10.53
2023-01-20T06:24:24.393Z,11.80
2023-01-20T06:26:54.313Z,12.90
2023-01-20T06:29:24.723Z,11.37
2023-01-20T06:31:55.000Z,9.57
2023-01-20T06:34:25.885Z,11.60
2023-01-20T06:36:55.157Z,12.77
2023-01-20T06:39:24.531Z,11.23
2023-01-20T06:41:54.516Z,11.67
2023-01-20T06:44:23.757Z,10.97
2023-01-20T06:46:53.006Z,9.60
2023-01-20T06:49:22.289Z,10.63
2023-01-20T06:51:52.946Z,11.00
2023-01-20T06:54:22.465Z,11.80
2023-01-20T06:56:51.583Z,10.60
2023-01-20T06:59:20.630Z,9.93
2023-01-20T07:01:49.839Z,9.67
2023-01-20T07:04:19.118Z,10.90
2023-01-20T07:06:48.327Z,12.53
2023-01-20T07:09:19.034Z,10.67
2023-01-20T07:11:48.420Z,10.73
2023-01-20T07:14:18.204Z,10.40
2023-01-20T07:16:48.622Z,10.87
2023-01-20T07:19:18.404Z,11.63
2023-01-20T07:21:47.661Z,11.07
2023-01-20T07:24:18.301Z,10.50
2023-01-20T07:26:47.945Z,10.87
2023-01-20T07:29:17.973Z,10.73
2023-01-20T07:31:47.349Z,10.17
2023-01-20T07:34:16.426Z,6.57
2023-01-20T07:36:46.632Z,10.33
2023-01-20T07:39:19.972Z,10.27
2023-01-20T07:41:50.398Z,9.10
2023-01-20T07:44:19.462Z,10.37
2023-01-20T07:46:48.631Z,9.83
2023-01-20T07:49:17.727Z,9.17
2023-01-20T07:51:46.777Z,10.80
2023-01-20T07:54:15.857Z,8.13
2023-01-20T07:56:44.881Z,10.37
2023-01-20T07:59:15.292Z,10.57
2023-01-20T08:01:44.993Z,10.23
2023-01-20T08:04:14.346Z,10.33
2023-01-20T08:06:44.056Z,10.50
2023-01-20T08:09:14.691Z,9.70
2023-01-20T08:11:43.729Z,9.23
2023-01-20T08:14:14.148Z,11.93
2023-01-20T08:16:43.179Z,9.60
2023-01-20T08:19:12.327Z,9.23
2023-01-20T08:21:42.409Z,9.73
2023-01-20T08:24:12.165Z,10.37
2023-01-20T08:26:41.189Z,2.90
2023-01-20T08:29:11.228Z,9.43
2023-01-20T08:31:42.447Z,10.07
2023-01-20T08:34:12.125Z,9.83
2023-01-20T08:36:43.115Z,10.03
2023-01-20T08:39:15.120Z,9.90
2023-01-20T08:41:45.810Z,10.43
2023-01-20T08:44:16.413Z,9.30
2023-01-20T08:46:47.079Z,9.30
2023-01-20T08:49:17.931Z,7.03
2023-01-20T08:51:47.030Z,10.03
2023-01-20T08:54:16.522Z,8.90
2023-01-20T08:56:45.651Z,9.67
2023-01-20T08:59:14.679Z,9.07
2023-01-20T09:01:44.002Z,8.97
2023-01-20T09:04:14.635Z,8.70
2023-01-20T09:06:46.332Z,7.00
2023-01-20T09:09:17.014Z,9.03
2023-01-20T09:11:50.792Z,8.53
2023-01-20T09:14:20.056Z,7.43
2023-01-20T09:16:49.790Z,8.13
2023-01-20T09:19:20.318Z,6.93
2023-01-20T09:21:49.477Z,8.87
2023-01-20T09:24:18.489Z,7.87
2023-01-20T09:26:48.253Z,9.73
2023-01-20T09:29:19.585Z,6.47
2023-01-20T09:31:52.364Z,8.43
2023-01-20T09:34:24.229Z,8.97
2023-01-20T09:36:53.904Z,8.73
2023-01-20T09:39:40.836Z,8.53
2023-01-20T09:42:44.278Z,9.63
2023-01-20T09:45:25.683Z,7.80
2023-01-20T09:48:02.053Z,8.67
2023-01-20T09:51:01.072Z,8.67
2023-01-20T09:53:47.119Z,7.83
2023-01-20T09:56:18.442Z,8.63
2023-01-20T09:58:53.919Z,8.97
2023-01-20T10:01:30.451Z,9.70
2023-01-20T10:04:07.128Z,9.23
2023-01-20T10:06:43.818Z,8.87
2023-01-20T10:09:21.261Z,8.83
2023-01-20T10:11:55.613Z,9.37
2023-01-20T10:14:31.089Z,8.17
2023-01-20T10:17:05.693Z,10.37
2023-01-20T10:19:42.283Z,8.80
2023-01-20T10:22:19.248Z,7.20
2023-01-20T10:24:55.469Z,6.87
2023-01-20T10:27:27.803Z,9.77
2023-01-20T10:30:06.572Z,9.43
2023-01-20T10:32:37.725Z,8.87
2023-01-20T10:35:15.597Z,9.67
2023-01-20T10:37:46.568Z,8.67
2023-01-20T10:40:26.349Z,8.67
2023-01-20T10:42:59.341Z,8.80
2023-01-20T10:45:35.121Z,8.73
2023-01-20T10:48:20.023Z,8.70
2023-01-20T10:50:57.084Z,9.87
2023-01-20T10:53:45.928Z,9.27
2023-01-20T10:56:42.167Z,9.03
2023-01-20T10:59:16.381Z,9.63
2023-01-20T11:01:56.224Z,7.90
2023-01-20T11:04:29.492Z,8.93
2023-01-20T11:07:00.612Z,9.53
2023-01-20T11:09:37.095Z,8.67
2023-01-20T11:12:13.866Z,8.90
2023-01-20T11:14:43.707Z,8.67
2023-01-20T11:17:16.893Z,9.30
2023-01-20T11:19:52.881Z,8.33
2023-01-20T11:22:29.920Z,8.13
2023-01-20T11:25:03.980Z,7.53
2023-01-20T11:27:44.991Z,6.43
2023-01-20T11:30:27.550Z,8.27
2023-01-20T11:33:11.139Z,8.30
2023-01-20T11:35:40.219Z,7.37
2023-01-20T11:38:26.873Z,7.40
2023-01-20T11:40:58.246Z,7.33
2023-01-20T11:43:32.341Z,7.50
2023-01-20T11:46:23.845Z,7.47
2023-01-20T11:49:13.581Z,9.40
2023-01-20T11:51:52.234Z,6.90
2023-01-20T11:54:23.806Z,7.03
2023-01-20T11:56:58.003Z,7.30
2023-01-20T11:59:30.247Z,6.77
2023-01-20T12:02:02.215Z,6.93
2023-01-20T12:05:04.166Z,8.50
2023-01-20T12:07:38.411Z,8.23
2023-01-20T12:10:18.216Z,6.80
2023-01-20T12:12:53.116Z,8.77
2023-01-20T12:15:25.155Z,6.33
2023-01-20T12:17:57.866Z,7.07
2023-01-20T12:20:42.375Z,8.20
2023-01-20T12:23:23.211Z,7.13
2023-01-20T12:25:56.475Z,7.90
2023-01-20T12:28:34.457Z,7.23
2023-01-20T12:31:05.078Z,9.37
2023-01-20T12:33:36.295Z,7.53
2023-01-20T12:36:30.898Z,7.87
2023-01-20T12:39:28.577Z,8.13
2023-01-20T12:42:39.646Z,5.53
2023-01-20T12:45:21.766Z,6.33
2023-01-20T12:48:05.120Z,7.77
2023-01-20T12:50:50.677Z,7.17
2023-01-20T12:53:39.904Z,6.83
2023-01-20T12:56:20.060Z,7.27
2023-01-20T12:58:58.999Z,7.97
2023-01-20T13:01:42.861Z,6.80
2023-01-20T13:04:45.439Z,7.00
2023-01-20T13:07:44.493Z,7.17
2023-01-20T13:10:40.313Z,6.70
2023-01-20T13:13:19.217Z,6.63
2023-01-20T13:15:56.673Z,7.17
2023-01-20T13:18:35.753Z,7.03
2023-01-20T13:21:05.022Z,7.27
2023-01-20T13:23:36.761Z,7.23
2023-01-20T13:26:07.217Z,7.00
2023-01-20T13:28:36.513Z,8.07
2023-01-20T13:31:43.127Z,7.73
2023-01-20T13:34:36.380Z,7.67
2023-01-20T13:37:36.362Z,7.03
2023-01-20T13:40:21.508Z,7.27
2023-01-20T13:42:51.852Z,6.37
2023-01-20T13:45:27.439Z,6.43
2023-01-20T13:48:03.110Z,6.33
2023-01-20T13:50:36.089Z,7.57
2023-01-20T13:53:27.791Z,6.63
2023-01-20T13:56:28.082Z,7.37
2023-01-20T13:58:58.316Z,6.67
2023-01-20T14:01:28.738Z,7.53
2023-01-20T14:04:05.620Z,7.77
2023-01-20T14:06:36.437Z,7.73
2023-01-20T14:09:11.096Z,8.30
2023-01-20T14:11:51.095Z,8.50
2023-01-20T14:14:21.667Z,9.10
2023-01-20T14:16:51.509Z,9.27
2023-01-20T14:19:27.124Z,9.83
2023-01-20T14:22:01.694Z,8.10
2023-01-20T14:24:32.220Z,7.70
2023-01-20T14:27:09.822Z,8.13
2023-01-20T14:29:40.320Z,7.00
2023-01-20T14:32:22.360Z,7.83
2023-01-20T14:34:52.868Z,7.97
2023-01-20T14:37:29.005Z,7.33
2023-01-20T14:40:00.358Z,7.97
2023-01-20T14:42:31.090Z,8.03
2023-01-20T14:45:00.204Z,9.37
2023-01-20T14:47:31.173Z,7.70
2023-01-20T14:50:00.353Z,8.57
2023-01-20T14:52:33.096Z,8.50
2023-01-20T14:55:02.128Z,9.53
2023-01-20T14:57:31.783Z,8.43
2023-01-20T15:00:20.089Z,7.27
2023-01-20T15:03:09.225Z,8.37
2023-01-20T15:05:41.881Z,7.23
2023-01-20T15:08:24.361Z,8.17
2023-01-20T15:11:21.609Z,7.23
2023-01-20T15:14:11.898Z,7.77
2023-01-20T15:16:50.308Z,8.13
2023-01-20T15:19:30.161Z,10.07
2023-01-20T15:22:22.985Z,10.53
2023-01-20T15:24:53.996Z,10.23
2023-01-20T15:27:29.219Z,10.50
2023-01-20T15:30:17.195Z,13.00
2023-01-20T15:32:47.634Z,9.93
2023-01-20T15:35:19.906Z,7.60
2023-01-20T15:37:49.863Z,10.63
2023-01-20T15:40:22.106Z,9.10
2023-01-20T15:42:53.318Z,9.00
2023-01-20T15:45:22.458Z,9.43
2023-01-20T15:47:51.549Z,8.77
2023-01-20T15:50:22.911Z,28.33
2023-01-20T15:52:52.361Z,10.27
2023-01-20T15:55:22.895Z,8.77
2023-01-20T15:57:53.801Z,9.33
2023-01-20T16:00:24.610Z,8.83
2023-01-20T16:02:53.792Z,10.70
2023-01-20T16:05:23.083Z,10.40
2023-01-20T16:07:52.134Z,9.90
2023-01-20T16:10:22.817Z,9.83
2023-01-20T16:12:52.245Z,9.50
2023-01-20T16:15:21.271Z,10.00
2023-01-20T16:17:52.646Z,10.03
2023-01-20T16:20:23.617Z,11.30
2023-01-20T16:22:53.108Z,12.47
2023-01-20T16:25:24.755Z,12.30
2023-01-20T16:27:53.763Z,10.90
2023-01-20T16:30:23.785Z,11.57
2023-01-20T16:32:52.932Z,11.20
2023-01-20T16:35:23.609Z,14.00
2023-01-20T16:37:53.301Z,11.67
2023-01-20T16:40:24.605Z,11.17
2023-01-20T16:42:56.809Z,11.33
2023-01-20T16:45:28.966Z,11.30
2023-01-20T16:47:58.311Z,12.47
2023-01-20T16:50:28.206Z,12.57
2023-01-20T16:52:57.560Z,14.00
2023-01-20T16:55:28.080Z,13.03
2023-01-20T16:57:57.279Z,14.37
2023-01-20T17:00:26.562Z,12.50
2023-01-20T17:02:55.609Z,13.70
2023-01-20T17:05:25.698Z,15.80
2023-01-20T17:07:57.165Z,16.07
2023-01-20T17:10:29.455Z,14.97
2023-01-20T17:12:59.110Z,15.27
2023-01-20T17:15:28.994Z,13.37
2023-01-20T17:18:00.301Z,15.43
2023-01-20T17:20:30.957Z,14.07
2023-01-20T17:23:00.117Z,13.43
2023-01-20T17:25:30.683Z,14.00
2023-01-20T17:27:59.766Z,12.10
2023-01-20T17:30:28.945Z,24.60
2023-01-20T17:32:58.353Z,26.07
2023-01-20T17:35:27.811Z,17.43
2023-01-20T17:37:58.207Z,16.17
2023-01-20T17:40:27.326Z,14.67
2023-01-20T17:42:58.044Z,14.27
2023-01-20T17:45:29.263Z,12.90
2023-01-20T17:48:04.337Z,13.70
2023-01-20T17:50:33.571Z,13.47
2023-01-20T17:53:03.258Z,13.90
2023-01-20T17:55:32.610Z,13.50
2023-01-20T17:58:03.081Z,11.90
2023-01-20T18:00:32.189Z,13.50
2023-01-20T18:03:01.226Z,14.10
2023-01-20T18:05:30.437Z,14.43
2023-01-20T18:08:01.536Z,12.37
2023-01-20T18:10:31.031Z,13.53
2023-01-20T18:13:00.167Z,12.60
2023-01-20T18:15:30.637Z,14.47
2023-01-20T18:18:02.367Z,12.70
2023-01-20T18:20:31.594Z,13.87
2023-01-20T18:23:00.626Z,16.50
2023-01-20T18:25:30.826Z,15.00
2023-01-20T18:27:59.895Z,14.00
2023-01-20T18:30:31.095Z,13.17
2023-01-20T18:33:00.204Z,14.37
2023-01-20T18:35:33.151Z,13.47
2023-01-20T18:38:02.388Z,13.70
2023-01-20T18:40:31.942Z,13.63
2023-01-20T18:43:01.733Z,14.57
2023-01-20T18:45:34.597Z,14.37
2023-01-20T18:48:03.843Z,15.13
2023-01-20T18:50:32.943Z,14.97
2023-01-20T18:53:02.126Z,17.00
2023-01-20T18:55:32.112Z,16.43
2023-01-20T18:58:01.350Z,16.97
2023-01-20T19:00:32.428Z,15.50
2023-01-20T19:03:02.075Z,17.33
2023-01-20T19:05:33.254Z,17.93
2023-01-20T19:08:02.571Z,18.13
2023-01-20T19:10:31.787Z,18.20
2023-01-20T19:13:00.849Z,16.03
2023-01-20T19:15:33.620Z,17.47
2023-01-20T19:18:03.219Z,17.77
2023-01-20T19:20:32.224Z,16.33
2023-01-20T19:23:01.501Z,17.40
2023-01-20T19:25:31.731Z,15.93
2023-01-20T19:28:01.560Z,17.00
2023-01-20T19:30:32.253Z,16.40
2023-01-20T19:33:01.490Z,16.13
2023-01-20T19:35:33.614Z,15.37
2023-01-20T19:38:02.703Z,16.47
2023-01-20T19:40:31.757Z,15.67
2023-01-20T19:43:00.831Z,18.30
2023-01-20T19:45:44.839Z,22.43
2023-01-20T19:48:14.913Z,16.60
2023-01-20T19:50:44.330Z,15.60
2023-01-20T19:53:13.541Z,15.83
2023-01-20T19:55:42.603Z,15.77
2023-01-20T19:58:12.020Z,17.03
2023-01-20T20:00:42.511Z,17.63
2023-01-20T20:03:11.554Z,16.70
2023-01-20T20:05:40.598Z,16.33
2023-01-20T20:08:09.770Z,16.70
2023-01-20T20:10:42.777Z,15.13
2023-01-20T20:13:11.823Z,15.50
2023-01-20T20:15:42.309Z,14.03
2023-01-20T20:18:11.455Z,16.00
2023-01-20T20:20:40.661Z,15.07
2023-01-20T20:23:09.799Z,16.03
2023-01-20T20:25:39.242Z,13.70
2023-01-20T20:28:08.392Z,14.90
2023-01-20T20:30:37.547Z,14.50
2023-01-20T20:33:08.285Z,13.90
2023-01-20T20:35:37.681Z,14.27
2023-01-20T20:38:09.542Z,16.00
2023-01-20T20:40:38.704Z,18.03
2023-01-20T20:43:07.895Z,17.20
2023-01-20T20:45:36.907Z,17.13
2023-01-20T20:48:09.913Z,18.40
2023-01-20T20:50:39.192Z,16.80
2023-01-20T20:53:08.402Z,16.47
2023-01-20T20:55:41.154Z,16.83
2023-01-20T20:58:10.534Z,15.73
2023-01-20T21:00:40.348Z,17.67
2023-01-20T21:03:11.457Z,20.83
2023-01-20T21:05:40.501Z,18.83
2023-01-20T21:08:09.707Z,15.63
2023-01-20T21:10:40.924Z,15.93
2023-01-20T21:13:10.170Z,15.10
2023-01-20T21:15:39.444Z,16.97
2023-01-20T21:18:09.908Z,14.50
2023-01-20T21:20:38.984Z,16.07
2023-01-20T21:23:09.985Z,15.07
2023-01-20T21:25:39.013Z,14.03
2023-01-20T21:28:08.778Z,14.57
2023-01-20T21:30:40.191Z,13.63
2023-01-20T21:33:15.414Z,12.10
2023-01-20T21:35:44.846Z,12.77
2023-01-20T21:38:14.427Z,12.37
2023-01-20T21:40:59.634Z,13.23
2023-01-20T21:43:50.189Z,11.83
2023-01-20T21:46:19.537Z,13.03
2023-01-20T21:49:07.375Z,12.23
2023-01-20T21:51:53.824Z,12.93
2023-01-20T21:54:22.869Z,12.60
2023-01-20T21:56:53.089Z,11.63
2023-01-20T21:59:23.808Z,13.23
2023-01-20T22:01:53.616Z,12.63
2023-01-20T22:04:24.258Z,12.33
2023-01-20T22:06:53.318Z,12.10
2023-01-20T22:09:22.362Z,12.83
2023-01-20T22:11:51.456Z,12.90
2023-01-20T22:14:20.479Z,13.20
2023-01-20T22:16:49.559Z,12.30
2023-01-20T22:19:18.879Z,13.33
2023-01-20T22:21:49.294Z,12.97
2023-01-20T22:24:18.567Z,13.60
2023-01-20T22:26:48.316Z,11.33
2023-01-20T22:29:17.816Z,14.53
2023-01-20T22:31:47.612Z,11.60
2023-01-20T22:34:17.036Z,12.53
2023-01-20T22:36:46.813Z,14.50
2023-01-20T22:39:17.596Z,12.30
2023-01-20T22:41:46.685Z,11.63
2023-01-20T22:44:16.024Z,11.93
2023-01-20T22:46:45.112Z,11.07
2023-01-20T22:49:14.293Z,12.43
2023-01-20T22:51:43.374Z,11.03
2023-01-20T22:54:12.650Z,11.37
2023-01-20T22:56:44.859Z,10.17
2023-01-20T22:59:14.561Z,9.97
2023-01-20T23:01:43.835Z,11.63
2023-01-20T23:04:12.885Z,10.50
2023-01-20T23:06:42.011Z,12.07
2023-01-20T23:09:15.333Z,14.60
2023-01-20T23:11:46.011Z,12.13
2023-01-20T23:14:15.124Z,11.17
2023-01-20T23:16:44.736Z,11.80
2023-01-20T23:19:13.853Z,11.40
2023-01-20T23:21:42.954Z,10.60
2023-01-20T23:24:12.037Z,11.10
2023-01-20T23:26:42.180Z,10.67
2023-01-20T23:29:13.028Z,11.10
2023-01-20T23:31:42.121Z,10.30
2023-01-20T23:34:11.171Z,10.27
2023-01-20T23:36:40.216Z,9.53
2023-01-20T23:39:11.238Z,9.60
2023-01-20T23:41:40.259Z,11.13
2023-01-20T23:44:11.419Z,10.27
2023-01-20T23:46:40.682Z,10.03
2023-01-20T23:49:09.726Z,10.47
2023-01-20T23:51:38.768Z,9.53
2023-01-20T23:54:07.847Z,10.60
2023-01-20T23:56:37.008Z,9.97
2023-01-20T23:59:06.104Z,9.83
